Time;durP1;ratioP1;P1;durP2;ratioP2;P2;SDS_P1;SDS_P2;PMS_P1;PMS_P2;Temp;Humidity;BMP_temperature;BMP_pressure;BME280_temperature;BME280_humidity;BME280_pressure;Samples;Min_cycle;Max_cycle;Signal;HPM_P1;HPM_P2
2021/07/05 08:39:13;;;;;;;14.65;3.80;;;22.90;61.60;;;;;;5064821;28;20399;-79
2021/07/05 08:41:38;;;;;;;9.18;2.83;;;19.50;69.20;;;;;;5031491;28;20411;-79
2021/07/05 08:44:04;;;;;;;5.88;2.30;;;19.20;72.50;;;;;;4991835;28;80238;-79
2021/07/05 08:46:32;;;;;;;6.70;2.85;;;19.10;71.30;;;;;;5015358;28;20513;-80
2021/07/05 08:48:58;;;;;;;8.43;2.65;;;18.90;73.20;;;;;;4988383;28;20028;-73
2021/07/05 08:51:23;;;;;;;9.23;3.20;;;19.00;74.40;;;;;;5004886;28;20022;-87
2021/07/05 08:53:49;;;;;;;13.55;2.72;;;18.80;76.90;;;;;;4985307;28;20053;-84
2021/07/05 08:56:15;;;;;;;7.15;3.20;;;18.60;76.80;;;;;;4987104;28;20596;-84
2021/07/05 08:58:41;;;;;;;7.10;3.17;;;18.50;78.40;;;;;;4986798;28;20038;-85
2021/07/05 09:01:09;;;;;;;7.95;3.67;;;18.30;79.50;;;;;;4987415;28;20030;-85
2021/07/05 09:03:34;;;;;;;5.88;2.92;;;18.20;81.30;;;;;;4982806;28;20057;-83
2021/07/05 09:06:16;;;;;;;8.65;3.25;;;18.00;81.20;;;;;;4987280;28;20030;-87
2021/07/05 09:08:46;;;;;;;;;;;17.90;79.90;;;;;;4987508;28;20037;-87
2021/07/05 09:11:18;;;;;;;9.23;3.75;;;17.80;81.40;;;;;;5019996;28;20334;-88
2021/07/05 09:13:53;;;;;;;12.85;4.60;;;17.70;82.70;;;;;;4986470;28;20478;-86
2021/07/05 09:16:30;;;;;;;8.88;4.03;;;17.60;83.00;;;;;;4971720;28;20061;-87
2021/07/05 09:18:56;;;;;;;9.60;4.22;;;17.60;85.00;;;;;;4986969;28;20040;-86
2021/07/05 09:21:24;;;;;;;10.90;3.53;;;17.50;85.00;;;;;;4987063;28;20030;-86
2021/07/05 09:24:01;;;;;;;8.57;3.88;;;17.50;84.90;;;;;;4987007;28;20077;-86
2021/07/05 09:26:29;;;;;;;9.05;4.50;;;17.50;85.10;;;;;;4987072;28;20152;-86
2021/07/05 09:28:54;;;;;;;13.23;4.03;;;17.50;85.80;;;;;;4986769;28;20030;-86
2021/07/05 09:31:35;;;;;;;7.40;4.63;;;17.50;85.60;;;;;;4986436;28;20393;-86
2021/07/05 09:34:02;;;;;;;8.88;4.70;;;17.50;86.70;;;;;;4987089;28;20034;-87
2021/07/05 09:36:27;;;;;;;9.93;4.60;;;17.60;87.70;;;;;;4987003;28;20130;-87
2021/07/05 09:38:53;;;;;;;9.65;3.70;;;17.60;86.30;;;;;;4986298;28;20125;-86
2021/07/05 09:41:27;;;;;;;12.13;3.95;;;17.70;86.20;;;;;;4986704;28;20022;-86
2021/07/05 09:43:56;;;;;;;12.80;4.47;;;17.60;85.90;;;;;;4986648;28;20030;-86
2021/07/05 09:46:43;;;;;;;9.75;3.80;;;17.60;86.90;;;;;;4986812;28;20037;-86
2021/07/05 09:49:28;;;;;;;6.43;3.67;;;17.70;86.60;;;;;;4996744;28;20706;-86
2021/07/05 09:52:10;;;;;;;12.18;4.03;;;17.70;85.70;;;;;;4974976;28;20073;-87
2021/07/05 09:54:37;;;;;;;6.65;3.47;;;17.60;84.10;;;;;;4974310;28;20037;-86
2021/07/05 09:57:04;;;;;;;8.43;3.72;;;17.70;85.30;;;;;;4973522;28;20026;-85
2021/07/05 09:59:30;;;;;;;7.38;3.85;;;17.70;85.50;;;;;;4973184;28;20494;-87
2021/07/05 10:01:57;;;;;;;7.68;3.90;;;17.80;86.80;;;;;;4973202;28;20072;-87
2021/07/05 10:04:27;;;;;;;8.05;4.60;;;17.80;86.70;;;;;;4973313;28;20402;-87
2021/07/05 10:07:00;;;;;;;6.32;3.88;;;17.80;85.70;;;;;;4974034;28;20394;-87
2021/07/05 10:09:39;;;;;;;8.20;3.72;;;17.90;86.60;;;;;;4972819;28;20508;-87
2021/07/05 10:12:29;;;;;;;9.32;3.58;;;17.90;85.80;;;;;;4973128;28;20068;-85
2021/07/05 10:15:05;;;;;;;6.07;3.55;;;17.90;84.80;;;;;;4989306;28;20022;-86
2021/07/05 10:17:33;;;;;;;8.48;4.00;;;17.90;84.50;;;;;;4988792;28;20139;-86
2021/07/05 10:19:58;;;;;;;9.70;3.75;;;17.90;85.00;;;;;;4973367;28;20037;-87
2021/07/05 10:22:24;;;;;;;10.27;4.18;;;17.90;84.50;;;;;;4973301;28;20035;-87
2021/07/05 10:24:50;;;;;;;10.32;3.75;;;17.90;85.30;;;;;;4972914;28;20488;-88
2021/07/05 10:27:15;;;;;;;16.27;4.32;;;17.90;85.70;;;;;;4972512;28;20370;-87
2021/07/05 10:29:42;;;;;;;10.45;3.50;;;17.90;85.70;;;;;;4989636;28;20027;-87
2021/07/05 10:32:08;;;;;;;7.53;4.20;;;17.90;85.00;;;;;;4973557;28;20081;-87
2021/07/05 10:34:34;;;;;;;7.85;3.67;;;18.00;85.30;;;;;;4973556;28;20026;-87
2021/07/05 10:37:00;;;;;;;9.93;3.88;;;18.00;83.30;;;;;;4973305;28;20034;-88
2021/07/05 10:39:26;;;;;;;6.20;3.20;;;18.10;84.80;;;;;;4972949;28;20110;-87
2021/07/05 10:41:51;;;;;;;7.85;3.65;;;18.10;84.00;;;;;;4989573;28;20034;-87
2021/07/05 10:44:20;;;;;;;8.05;4.03;;;18.10;83.30;;;;;;4972784;28;20081;-87
2021/07/05 10:46:50;;;;;;;9.23;3.38;;;18.10;84.30;;;;;;4973607;28;20038;-86
2021/07/05 10:49:28;;;;;;;8.00;2.70;;;18.20;84.20;;;;;;4972324;28;20113;-86
2021/07/05 10:51:58;;;;;;;5.97;3.17;;;18.20;81.90;;;;;;4988599;28;20058;-87
2021/07/05 10:54:45;;;;;;;7.57;3.05;;;18.30;81.90;;;;;;4972927;28;20033;-88
2021/07/05 10:57:11;;;;;;;7.38;2.67;;;18.40;80.90;;;;;;4972693;28;20058;-86
2021/07/05 10:59:39;;;;;;;9.43;3.22;;;18.50;79.40;;;;;;4972455;28;20678;-88
2021/07/05 11:02:29;;;;;;;6.45;3.28;;;18.60;80.90;;;;;;4970973;28;20031;-87
2021/07/05 11:04:55;;;;;;;5.45;2.58;;;18.60;81.90;;;;;;4972298;28;20108;-87
2021/07/05 11:07:24;;;;;;;7.80;2.80;;;18.60;79.20;;;;;;4972142;28;20034;-88
2021/07/05 11:09:53;;;;;;;6.72;2.70;;;18.60;80.00;;;;;;4972349;28;20049;-87
2021/07/05 11:12:29;;;;;;;4.82;2.60;;;18.70;78.50;;;;;;4972203;28;20077;-88
2021/07/05 11:14:54;;;;;;;5.18;2.58;;;18.70;78.70;;;;;;4972282;28;20045;-87
2021/07/05 11:17:22;;;;;;;7.68;2.65;;;18.70;77.10;;;;;;4955931;28;20034;-85
2021/07/05 11:19:49;;;;;;;7.15;2.80;;;18.70;78.00;;;;;;4972272;28;20034;-87
2021/07/05 11:22:33;;;;;;;8.00;3.00;;;18.70;76.20;;;;;;4955505;28;20821;-88
2021/07/05 11:25:17;;;;;;;7.22;2.72;;;18.80;77.10;;;;;;4956493;28;20022;-88
2021/07/05 11:27:49;;;;;;;6.40;2.92;;;18.80;78.00;;;;;;4987827;28;20037;-88
2021/07/05 11:30:30;;;;;;;;;;;18.90;79.30;;;;;;4972963;28;20156;-88
2021/07/05 11:32:59;;;;;;;11.95;2.85;;;18.90;80.40;;;;;;4987745;28;19968;-88
2021/07/05 11:35:40;;;;;;;8.90;3.00;;;18.90;76.00;;;;;;4971783;28;20042;-88
2021/07/05 11:38:27;;;;;;;7.95;2.75;;;18.80;77.80;;;;;;4987590;28;20034;-89
2021/07/05 11:41:11;;;;;;;6.65;3.13;;;18.80;77.00;;;;;;4971135;28;20034;-88
2021/07/05 11:44:00;;;;;;;11.00;3.00;;;18.80;77.90;;;;;;4987745;28;20117;-88
2021/07/05 11:46:29;;;;;;;7.82;3.10;;;18.80;77.10;;;;;;4973026;28;20030;-88
2021/07/05 11:49:07;;;;;;;8.23;3.50;;;18.80;75.90;;;;;;4987437;28;20033;-88
2021/07/05 11:51:37;;;;;;;8.00;3.10;;;18.80;78.10;;;;;;4956612;28;20745;-87
2021/07/05 11:54:08;;;;;;;4.78;3.10;;;18.80;80.00;;;;;;4955805;28;20033;-87
2021/07/05 11:56:34;;;;;;;7.82;3.08;;;18.70;79.40;;;;;;4971107;28;20034;-88
2021/07/05 11:59:01;;;;;;;8.43;3.20;;;18.70;80.30;;;;;;4970898;28;20145;-89
2021/07/05 12:01:27;;;;;;;8.50;3.50;;;18.70;79.60;;;;;;4971353;28;20085;-89
2021/07/05 12:03:54;;;;;;;5.70;3.17;;;18.70;81.60;;;;;;4971455;28;20133;-89
2021/07/05 12:06:20;;;;;;;4.85;3.30;;;18.70;81.50;;;;;;4971408;28;20030;-87
2021/07/05 12:08:57;;;;;;;5.90;3.33;;;18.70;82.20;;;;;;4971148;28;20022;-88
2021/07/05 12:11:35;;;;;;;10.13;4.03;;;18.60;83.30;;;;;;4987419;28;20084;-88
2021/07/05 12:14:12;;;;;;;5.93;2.97;;;18.60;81.90;;;;;;4987120;28;20125;-88
2021/07/05 12:16:38;;;;;;;9.75;3.25;;;18.60;77.70;;;;;;4956544;28;20084;-86
2021/07/05 12:19:03;;;;;;;12.48;3.28;;;18.50;77.70;;;;;;4969865;28;20034;-87
2021/07/05 12:21:30;;;;;;;5.32;2.95;;;18.50;79.40;;;;;;4970977;28;20026;-88
2021/07/05 12:24:07;;;;;;;7.78;3.38;;;18.50;79.80;;;;;;4971123;28;20661;-88
2021/07/05 12:26:40;;;;;;;5.95;3.50;;;18.50;78.80;;;;;;4971169;28;20062;-88
2021/07/05 12:29:06;;;;;;;6.22;3.97;;;18.50;79.30;;;;;;4954725;28;20048;-88
2021/07/05 12:31:32;;;;;;;7.95;3.85;;;18.50;80.50;;;;;;4970737;28;20562;-89
2021/07/05 12:33:59;;;;;;;5.22;4.00;;;18.50;78.40;;;;;;4970697;28;20043;-89
2021/07/05 12:36:25;;;;;;;7.20;3.97;;;18.50;80.10;;;;;;4970956;28;20027;-89
2021/07/05 12:39:06;;;;;;;9.15;4.43;;;18.40;78.10;;;;;;4970650;28;20108;-88
2021/07/05 12:41:32;;;;;;;6.30;3.88;;;18.50;78.50;;;;;;4971565;28;20478;-87
2021/07/05 12:44:10;;;;;;;7.80;4.22;;;18.50;77.40;;;;;;4970371;28;20034;-87
2021/07/05 12:46:36;;;;;;;8.27;4.45;;;18.40;79.70;;;;;;4971293;28;20030;-89
2021/07/05 12:49:01;;;;;;;6.82;4.10;;;18.40;80.70;;;;;;4970617;28;20034;-87
2021/07/05 12:51:27;;;;;;;6.53;3.63;;;18.50;81.90;;;;;;4971060;28;20034;-87
2021/07/05 12:53:52;;;;;;;7.75;4.00;;;18.40;79.50;;;;;;4971108;28;20141;-87
2021/07/05 12:56:22;;;;;;;5.20;3.55;;;18.40;82.00;;;;;;4970685;28;20034;-88
2021/07/05 12:58:48;;;;;;;4.88;3.80;;;18.40;81.50;;;;;;4970964;28;20037;-87
2021/07/05 13:01:16;;;;;;;6.57;4.13;;;18.30;82.40;;;;;;4970833;28;20116;-87
2021/07/05 13:04:01;;;;;;;9.55;4.53;;;18.20;83.40;;;;;;4970728;28;20457;-87
2021/07/05 13:06:31;;;;;;;9.13;4.88;;;18.20;84.60;;;;;;4970847;28;20440;-88
2021/07/05 13:09:02;;;;;;;9.48;5.35;;;18.10;86.10;;;;;;4971335;28;20045;-88
2021/07/05 13:11:38;;;;;;;6.45;5.20;;;18.00;87.00;;;;;;4971604;28;20030;-88
2021/07/05 13:14:06;;;;;;;5.60;5.05;;;17.90;87.10;;;;;;4956129;28;20045;-88
2021/07/05 13:16:31;;;;;;;8.68;5.18;;;17.90;90.20;;;;;;4971769;28;20034;-87
2021/07/05 13:18:58;;;;;;;6.88;3.58;;;17.80;90.10;;;;;;4970788;28;20168;-88
2021/07/05 13:21:35;;;;;;;9.20;3.88;;;17.70;88.60;;;;;;4971759;28;20026;-87
2021/07/05 13:24:32;;;;;;;15.77;6.25;;;17.70;89.80;;;;;;4971089;28;20394;-88
2021/07/05 13:27:02;;;;;;;6.78;4.28;;;17.60;90.20;;;;;;4978803;28;20037;-86
2021/07/05 13:29:30;;;;;;;5.72;3.85;;;17.60;90.20;;;;;;4975236;28;20022;-88
2021/07/05 13:31:56;;;;;;;8.48;4.22;;;17.50;90.80;;;;;;4974908;28;20060;-88
2021/07/05 13:34:40;;;;;;;7.10;4.20;;;17.50;90.70;;;;;;4974948;28;20631;-87
2021/07/05 13:37:08;;;;;;;9.35;4.60;;;17.50;90.60;;;;;;4974310;28;20386;-88
2021/07/05 13:39:35;;;;;;;4.03;3.60;;;17.50;91.40;;;;;;4974706;28;20486;-87
2021/07/05 13:42:05;;;;;;;8.30;4.35;;;17.50;90.90;;;;;;4974643;28;20034;-88
2021/07/05 13:44:30;;;;;;;4.53;3.50;;;17.50;91.00;;;;;;4991127;28;20045;-87
2021/07/05 13:47:24;;;;;;;7.18;3.65;;;17.50;90.90;;;;;;4958512;28;20064;-87
2021/07/05 13:50:10;;;;;;;5.75;3.97;;;17.50;90.90;;;;;;4974418;28;20033;-87
2021/07/05 13:52:37;;;;;;;8.25;3.95;;;17.40;90.80;;;;;;4974594;28;20110;-87
2021/07/05 13:55:32;;;;;;;6.60;4.32;;;17.50;91.20;;;;;;4958582;28;20027;-86
2021/07/05 13:58:09;;;;;;;8.55;5.30;;;17.50;91.20;;;;;;4974205;28;20026;-88
2021/07/05 14:00:45;;;;;;;6.93;4.30;;;17.50;91.00;;;;;;4980755;23;20563;-85
2021/07/05 14:03:13;;;;;;;5.60;5.10;;;17.50;91.30;;;;;;4965581;28;20032;-84
2021/07/05 14:05:39;;;;;;;10.30;5.22;;;17.50;91.20;;;;;;4934688;29;20514;-85
2021/07/05 14:08:05;;;;;;;8.23;4.97;;;17.60;91.00;;;;;;4934067;29;20118;-85
2021/07/05 14:10:31;;;;;;;9.45;5.07;;;17.60;90.90;;;;;;4947964;28;20413;-84
2021/07/05 14:12:57;;;;;;;8.45;4.63;;;17.60;90.90;;;;;;4953757;28;20035;-84
2021/07/05 14:15:23;;;;;;;11.10;4.60;;;17.70;90.90;;;;;;4969923;28;20035;-84
2021/07/05 14:17:48;;;;;;;7.00;4.32;;;17.70;90.80;;;;;;4953314;28;20034;-84
2021/07/05 14:20:14;;;;;;;5.30;4.22;;;17.80;90.60;;;;;;4953542;28;20042;-84
2021/07/05 14:22:40;;;;;;;7.07;4.00;;;17.90;90.70;;;;;;4953488;28;20658;-84
2021/07/05 14:25:06;;;;;;;6.88;4.50;;;17.90;90.60;;;;;;4969255;28;20518;-84
2021/07/05 14:27:32;;;;;;;4.70;3.50;;;18.00;90.50;;;;;;4952897;28;20023;-85
2021/07/05 14:29:58;;;;;;;3.67;3.20;;;18.10;90.60;;;;;;4953269;28;20034;-84
2021/07/05 14:32:24;;;;;;;4.57;3.50;;;18.10;90.10;;;;;;4953504;28;20038;-84
2021/07/05 14:34:49;;;;;;;3.83;2.42;;;18.20;90.10;;;;;;4953408;28;20026;-84
2021/07/05 14:37:15;;;;;;;5.38;2.75;;;18.20;89.40;;;;;;4953127;28;20041;-84
2021/07/05 14:39:40;;;;;;;5.90;2.75;;;18.30;89.60;;;;;;4953402;28;20046;-84
2021/07/05 14:42:06;;;;;;;3.25;2.58;;;18.40;89.20;;;;;;4969123;28;20379;-85
2021/07/05 14:44:31;;;;;;;3.95;2.45;;;18.60;89.70;;;;;;4953068;28;20027;-85
2021/07/05 14:46:57;;;;;;;3.63;2.63;;;18.70;89.20;;;;;;4972028;28;20122;-85
2021/07/05 14:49:22;;;;;;;3.17;2.67;;;18.80;87.60;;;;;;4987920;28;20485;-84
2021/07/05 14:51:49;;;;;;;5.20;3.38;;;18.90;88.30;;;;;;4956288;28;20034;-84
2021/07/05 14:54:14;;;;;;;3.78;2.88;;;18.90;88.80;;;;;;4972141;28;20034;-84
2021/07/05 14:56:40;;;;;;;4.55;3.00;;;18.90;87.80;;;;;;4988124;28;20030;-84
2021/07/05 14:59:05;;;;;;;3.78;2.63;;;19.00;88.60;;;;;;4969827;28;20030;-85
2021/07/05 15:01:31;;;;;;;4.03;2.30;;;19.00;87.50;;;;;;4970831;28;20057;-85
2021/07/05 15:03:56;;;;;;;2.30;2.08;;;19.00;86.70;;;;;;4970393;28;20465;-85
2021/07/05 15:06:22;;;;;;;5.47;2.60;;;19.10;87.60;;;;;;4970281;28;20045;-85
2021/07/05 15:08:47;;;;;;;3.65;2.35;;;19.20;86.40;;;;;;4986114;28;20034;-85
2021/07/05 15:11:13;;;;;;;4.07;2.92;;;19.30;86.00;;;;;;4970006;28;20037;-85
2021/07/05 15:13:38;;;;;;;4.05;2.97;;;19.70;84.30;;;;;;4970079;28;20039;-84
2021/07/05 15:16:05;;;;;;;3.08;2.72;;;20.10;84.60;;;;;;4971740;28;20038;-85
2021/07/05 15:18:30;;;;;;;6.65;3.42;;;20.40;82.10;;;;;;4971252;28;20034;-84
2021/07/05 15:20:56;;;;;;;3.90;2.83;;;20.90;83.20;;;;;;4971722;28;20541;-85
2021/07/05 15:23:22;;;;;;;2.63;2.42;;;21.40;82.10;;;;;;4971865;28;20080;-85
2021/07/05 15:25:47;;;;;;;4.65;2.45;;;22.30;78.00;;;;;;4972161;28;20030;-85
2021/07/05 15:28:13;;;;;;;5.60;2.25;;;23.30;76.60;;;;;;4988002;28;20059;-85
2021/07/05 15:30:38;;;;;;;3.38;2.28;;;24.30;71.10;;;;;;4971536;28;20046;-85
2021/07/05 15:33:04;;;;;;;3.60;2.13;;;25.00;69.70;;;;;;4971469;28;20026;-85
2021/07/05 15:35:32;;;;;;;4.50;2.28;;;25.50;66.60;;;;;;4987384;28;20146;-85
2021/07/05 15:37:57;;;;;;;4.97;2.10;;;25.60;68.40;;;;;;4987440;28;20129;-85
2021/07/05 15:40:23;;;;;;;4.18;2.42;;;25.30;70.20;;;;;;4971197;28;20117;-85
2021/07/05 15:42:48;;;;;;;2.63;2.25;;;24.80;72.90;;;;;;4971396;28;20030;-85
2021/07/05 15:45:15;;;;;;;4.63;2.08;;;24.20;72.80;;;;;;4971303;28;20512;-85
2021/07/05 15:47:42;;;;;;;5.82;3.20;;;23.80;76.50;;;;;;4970546;28;20042;-85
2021/07/05 15:50:08;;;;;;;6.80;2.42;;;23.80;78.00;;;;;;4971129;28;20074;-85
2021/07/05 15:52:34;;;;;;;6.97;2.75;;;24.20;74.20;;;;;;4970881;28;20057;-85
2021/07/05 15:55:00;;;;;;;3.15;2.50;;;24.80;70.00;;;;;;4971440;28;20066;-86
2021/07/05 15:57:25;;;;;;;4.22;2.00;;;25.20;71.20;;;;;;4970981;28;20034;-86
2021/07/05 15:59:52;;;;;;;2.80;2.00;;;25.40;68.40;;;;;;4970969;28;20038;-85
2021/07/05 16:02:17;;;;;;;4.90;2.47;;;25.50;66.00;;;;;;4971295;28;20026;-85
2021/07/05 16:04:43;;;;;;;3.28;2.38;;;25.40;67.00;;;;;;4987532;28;20177;-85
2021/07/05 16:07:08;;;;;;;3.75;2.53;;;25.10;70.70;;;;;;4987125;28;20393;-85
2021/07/05 16:09:34;;;;;;;6.90;2.55;;;24.70;74.10;;;;;;4986952;28;20030;-85
2021/07/05 16:11:59;;;;;;;2.72;2.10;;;24.40;78.90;;;;;;4970652;28;20065;-85
2021/07/05 16:14:25;;;;;;;3.70;2.42;;;24.10;76.20;;;;;;4970657;28;20026;-86
2021/07/05 16:16:51;;;;;;;4.72;2.92;;;23.80;75.70;;;;;;4970754;28;20033;-85
2021/07/05 16:19:17;;;;;;;2.30;2.10;;;23.50;81.70;;;;;;4970168;28;20081;-85
2021/07/05 16:21:42;;;;;;;4.60;2.20;;;23.20;80.70;;;;;;4987025;28;20030;-85
2021/07/05 16:24:08;;;;;;;5.97;2.63;;;23.00;79.80;;;;;;4970688;28;20150;-86
2021/07/05 16:26:33;;;;;;;4.53;2.65;;;22.90;83.30;;;;;;4970721;28;20456;-85
2021/07/05 16:28:59;;;;;;;4.18;2.90;;;22.70;82.50;;;;;;4966291;28;20383;-85
2021/07/05 16:31:24;;;;;;;5.15;2.80;;;22.60;86.40;;;;;;4983517;28;20531;-85
2021/07/05 16:33:50;;;;;;;5.25;2.35;;;22.50;86.60;;;;;;4983572;28;20035;-85
2021/07/05 16:36:16;;;;;;;4.82;2.28;;;22.40;84.60;;;;;;4983524;28;20038;-85
2021/07/05 16:38:42;;;;;;;3.40;2.17;;;22.30;82.70;;;;;;4966885;28;20045;-84
2021/07/05 16:41:09;;;;;;;4.15;2.15;;;22.20;83.50;;;;;;4983521;28;20029;-85
2021/07/05 16:43:34;;;;;;;4.10;2.33;;;22.20;85.80;;;;;;4983491;28;20027;-85
2021/07/05 16:46:00;;;;;;;5.25;1.98;;;22.10;85.60;;;;;;4986719;28;20163;-85
2021/07/05 16:48:25;;;;;;;2.97;2.03;;;22.00;84.20;;;;;;4953886;28;20041;-85
2021/07/05 16:51:18;;;;;;;3.08;2.28;;;22.00;85.70;;;;;;4970620;28;20033;-85
2021/07/05 16:53:41;;;;;;;2.58;1.80;;;22.00;84.60;;;;;;4973242;28;20501;-85
2021/07/05 16:56:11;;;;;;;3.53;2.10;;;22.00;84.00;;;;;;4970857;28;20026;-85
2021/07/05 16:58:37;;;;;;;2.78;1.95;;;22.00;85.00;;;;;;4954570;28;20030;-85
2021/07/05 17:01:04;;;;;;;2.80;1.98;;;22.00;83.90;;;;;;4957941;28;20045;-85
2021/07/05 17:03:37;;;;;;;2.40;1.90;;;21.90;85.40;;;;;;4958266;28;20032;-85
2021/07/05 17:06:03;;;;;;;3.47;2.20;;;21.90;84.70;;;;;;4958054;28;20038;-85
2021/07/05 17:08:32;;;;;;;4.10;2.00;;;21.90;84.70;;;;;;4973571;28;20033;-85
2021/07/05 17:11:00;;;;;;;5.32;2.00;;;21.80;86.00;;;;;;4958129;28;20084;-85
2021/07/05 17:13:26;;;;;;;4.50;2.10;;;21.70;85.00;;;;;;4974457;28;20489;-85
2021/07/05 17:15:52;;;;;;;2.95;2.28;;;21.60;85.90;;;;;;4958124;28;20687;-85
2021/07/05 17:18:17;;;;;;;2.58;2.05;;;21.60;84.30;;;;;;4973736;28;20026;-85
2021/07/05 17:20:43;;;;;;;11.18;2.30;;;21.50;83.60;;;;;;4957872;28;20806;-85
2021/07/05 17:23:09;;;;;;;6.40;2.20;;;21.40;79.80;;;;;;4990056;28;20027;-85
2021/07/05 17:25:34;;;;;;;2.90;2.08;;;21.30;80.30;;;;;;4971169;28;20123;-85
2021/07/05 17:28:00;;;;;;;4.60;2.35;;;21.30;83.40;;;;;;4973526;28;20053;-85
2021/07/05 17:30:25;;;;;;;2.85;2.28;;;21.20;83.80;;;;;;4973698;28;20034;-84
2021/07/05 17:32:51;;;;;;;3.08;2.60;;;21.10;85.30;;;;;;4957680;28;20030;-85
2021/07/05 17:35:18;;;;;;;5.10;2.35;;;21.10;84.50;;;;;;4973877;28;20070;-86
2021/07/05 17:37:43;;;;;;;6.32;2.40;;;21.00;85.60;;;;;;4973588;28;20030;-85
2021/07/05 17:40:10;;;;;;;3.53;1.92;;;21.00;85.20;;;;;;4973653;28;20037;-86
2021/07/05 17:42:35;;;;;;;3.65;2.15;;;20.90;82.70;;;;;;4956944;28;20057;-85
2021/07/05 17:45:02;;;;;;;4.63;2.85;;;20.90;85.40;;;;;;4973625;28;20105;-85
2021/07/05 17:47:30;;;;;;;4.15;2.55;;;20.80;85.50;;;;;;4956661;28;20080;-85
2021/07/05 17:49:56;;;;;;;3.15;2.88;;;20.80;87.80;;;;;;4957484;28;20126;-85
2021/07/05 17:52:25;;;;;;;4.00;3.03;;;20.70;89.40;;;;;;4953833;28;20097;-85
2021/07/05 17:54:50;;;;;;;3.88;2.60;;;20.70;89.40;;;;;;4953981;28;20112;-85
2021/07/05 17:57:17;;;;;;;5.75;3.00;;;20.70;89.30;;;;;;4985814;28;20074;-84
2021/07/05 17:59:47;;;;;;;4.18;2.58;;;20.70;89.00;;;;;;4972718;28;20093;-84
2021/07/05 18:02:13;;;;;;;4.85;2.90;;;20.60;89.60;;;;;;4989052;28;20533;-84
2021/07/05 18:04:45;;;;;;;4.55;2.83;;;20.60;90.00;;;;;;4958810;28;20085;-84
2021/07/05 18:07:13;;;;;;;3.40;3.10;;;20.50;89.90;;;;;;4984748;28;20031;-84
2021/07/05 18:09:39;;;;;;;5.90;2.92;;;20.50;90.40;;;;;;4968648;28;20027;-84
2021/07/05 18:12:05;;;;;;;5.93;2.92;;;20.50;90.30;;;;;;4984602;28;20054;-85
2021/07/05 18:14:31;;;;;;;3.30;2.97;;;20.50;90.50;;;;;;4988598;28;20053;-84
2021/07/05 18:16:56;;;;;;;3.55;2.83;;;20.40;90.40;;;;;;5002149;28;20023;-85
2021/07/05 18:19:22;;;;;;;5.00;2.97;;;20.40;90.70;;;;;;4971798;28;20038;-85
2021/07/05 18:21:47;;;;;;;3.33;2.85;;;20.40;90.80;;;;;;4989140;28;20037;-85
2021/07/05 18:24:13;;;;;;;4.40;2.97;;;20.40;90.80;;;;;;4951446;28;20076;-84
2021/07/05 18:26:40;;;;;;;3.90;2.58;;;20.30;91.10;;;;;;4959259;28;20019;-87
2021/07/05 18:29:06;;;;;;;3.40;2.08;;;20.30;91.00;;;;;;4988045;28;20509;-85
2021/07/05 18:31:32;;;;;;;4.63;3.55;;;20.20;90.80;;;;;;4973819;28;20033;-85
2021/07/05 18:33:58;;;;;;;4.22;3.33;;;20.20;91.50;;;;;;4952586;28;20661;-84
2021/07/05 18:36:24;;;;;;;7.70;3.35;;;20.20;91.60;;;;;;4977905;28;20058;-85
2021/07/05 18:38:50;;;;;;;4.30;2.65;;;20.20;91.20;;;;;;4989377;28;20105;-84
2021/07/05 18:41:15;;;;;;;8.95;3.25;;;20.20;91.10;;;;;;4955965;28;20421;-85
2021/07/05 18:43:42;;;;;;;4.88;3.17;;;20.10;91.30;;;;;;4942126;28;20116;-84
2021/07/05 18:46:08;;;;;;;4.82;3.08;;;20.10;91.60;;;;;;4964221;28;20084;-85
2021/07/05 18:48:35;;;;;;;4.95;3.10;;;20.00;91.40;;;;;;4973908;28;20042;-84
2021/07/05 18:51:01;;;;;;;3.42;3.10;;;20.00;92.00;;;;;;4971644;28;20238;-84
2021/07/05 18:53:26;;;;;;;3.97;3.60;;;20.00;92.00;;;;;;4971366;28;20617;-84
2021/07/05 18:55:56;;;;;;;10.00;3.55;;;20.00;92.40;;;;;;4966629;28;20054;-85
2021/07/05 18:58:23;;;;;;;6.00;3.30;;;19.90;92.10;;;;;;4981997;28;20035;-85
2021/07/05 19:00:50;;;;;;;4.88;2.92;;;19.90;92.00;;;;;;4971624;28;20034;-85
2021/07/05 19:03:16;;;;;;;5.93;3.70;;;19.90;91.40;;;;;;4993629;28;20030;-86
2021/07/05 19:05:41;;;;;;;3.38;2.80;;;19.90;91.60;;;;;;4974252;28;20080;-85
2021/07/05 19:08:07;;;;;;;5.13;3.10;;;19.90;91.70;;;;;;4958253;28;20129;-85
2021/07/05 19:10:32;;;;;;;3.60;2.45;;;19.80;91.90;;;;;;4971782;28;20063;-85
2021/07/05 19:12:58;;;;;;;5.10;3.25;;;19.80;91.70;;;;;;4962146;28;20080;-85
2021/07/05 19:15:25;;;;;;;4.43;2.40;;;19.80;92.00;;;;;;4971336;28;20133;-85
2021/07/05 19:17:50;;;;;;;4.18;2.60;;;19.80;91.70;;;;;;4967232;28;20089;-85
2021/07/05 19:20:17;;;;;;;2.53;2.33;;;19.80;91.60;;;;;;4979125;28;20692;-85
2021/07/05 19:22:42;;;;;;;3.15;2.65;;;19.80;91.80;;;;;;4975525;28;20173;-87
2021/07/05 19:25:10;;;;;;;2.65;2.42;;;19.80;91.60;;;;;;4965305;28;20030;-86
2021/07/05 19:27:36;;;;;;;3.72;2.78;;;19.80;91.60;;;;;;4982531;28;20030;-86
2021/07/05 19:30:02;;;;;;;3.17;2.50;;;19.70;91.60;;;;;;4951412;28;20512;-86
2021/07/05 19:32:27;;;;;;;3.00;2.75;;;19.70;91.50;;;;;;4967685;28;20393;-86
2021/07/05 19:34:53;;;;;;;3.05;2.65;;;19.70;91.80;;;;;;4971196;28;20030;-86
2021/07/05 19:37:18;;;;;;;3.55;3.25;;;19.70;92.00;;;;;;4968305;28;20035;-85
2021/07/05 19:39:44;;;;;;;5.82;2.90;;;19.70;92.40;;;;;;4989913;28;20041;-85
2021/07/05 19:42:10;;;;;;;5.28;3.00;;;19.70;92.10;;;;;;4974260;28;20025;-85
2021/07/05 19:44:35;;;;;;;5.18;3.03;;;19.70;92.80;;;;;;4977215;28;20097;-84
2021/07/05 19:47:01;;;;;;;4.30;3.90;;;19.60;92.80;;;;;;4951797;28;20037;-86
2021/07/05 19:49:27;;;;;;;3.60;3.30;;;19.60;93.00;;;;;;4942330;28;20125;-86
2021/07/05 19:51:52;;;;;;;5.97;3.85;;;19.60;93.00;;;;;;4982332;28;20034;-86
2021/07/05 19:54:18;;;;;;;3.92;3.38;;;19.60;93.30;;;;;;4967668;28;20026;-85
2021/07/05 19:56:43;;;;;;;7.20;4.57;;;19.50;92.90;;;;;;4967801;28;20027;-85
2021/07/05 19:59:09;;;;;;;5.82;4.10;;;19.50;93.20;;;;;;4967467;28;20033;-86
2021/07/05 20:01:34;;;;;;;4.57;3.53;;;19.50;93.10;;;;;;4969226;28;20759;-86
2021/07/05 20:04:00;;;;;;;6.95;3.97;;;19.50;93.20;;;;;;4972288;28;20025;-86
2021/07/05 20:06:26;;;;;;;5.15;3.33;;;19.50;93.70;;;;;;4989328;28;20121;-86
2021/07/05 20:08:57;;;;;;;4.65;3.30;;;19.50;93.10;;;;;;4971375;28;20031;-87
2021/07/05 20:11:23;;;;;;;4.40;3.45;;;19.50;92.60;;;;;;4973643;28;20039;-87
2021/07/05 20:13:48;;;;;;;4.93;3.53;;;19.40;92.70;;;;;;4973570;28;20038;-86
2021/07/05 20:16:14;;;;;;;5.88;3.70;;;19.40;92.60;;;;;;4973720;28;20035;-86
2021/07/05 20:18:40;;;;;;;3.20;2.90;;;19.40;92.30;;;;;;4972747;28;20037;-87
2021/07/05 20:21:07;;;;;;;8.65;3.65;;;19.40;92.20;;;;;;4972437;28;20050;-87
2021/07/05 20:23:39;;;;;;;3.20;3.00;;;19.40;92.70;;;;;;4973184;28;20033;-86
2021/07/05 20:26:04;;;;;;;4.03;2.88;;;19.30;92.00;;;;;;4973580;28;20565;-86
2021/07/05 20:28:30;;;;;;;6.32;3.38;;;19.30;92.50;;;;;;4956898;28;20109;-87
2021/07/05 20:30:55;;;;;;;7.50;3.50;;;19.40;92.90;;;;;;4973738;28;20030;-86
2021/07/05 20:33:21;;;;;;;4.50;3.50;;;19.30;92.90;;;;;;4957280;28;20028;-86
2021/07/05 20:35:46;;;;;;;6.07;3.88;;;19.30;92.20;;;;;;4957270;28;20030;-86
2021/07/05 20:38:12;;;;;;;4.63;3.00;;;19.30;91.40;;;;;;4994580;23;20047;-90
2021/07/05 20:40:37;;;;;;;5.68;3.78;;;19.30;91.50;;;;;;4936256;28;20418;-91
2021/07/05 20:43:03;;;;;;;3.65;3.35;;;19.30;91.60;;;;;;4920626;29;20023;-90
2021/07/05 20:45:30;;;;;;;4.68;4.07;;;19.30;91.70;;;;;;4930326;28;20027;-90
2021/07/05 20:47:56;;;;;;;3.88;3.55;;;19.30;92.30;;;;;;4954595;28;20734;-90
2021/07/05 20:50:21;;;;;;;5.03;3.22;;;19.30;92.10;;;;;;4955320;28;20121;-90
2021/07/05 20:52:47;;;;;;;3.88;2.72;;;19.20;91.50;;;;;;4955227;28;20019;-90
2021/07/05 20:55:16;;;;;;;3.50;2.75;;;19.30;91.60;;;;;;4957017;28;20060;-90
2021/07/05 20:57:42;;;;;;;3.28;2.97;;;19.20;90.60;;;;;;4956096;28;20081;-90
2021/07/05 21:00:10;;;;;;;3.60;2.75;;;19.30;91.10;;;;;;4955392;28;20023;-90
2021/07/05 21:02:35;;;;;;;6.50;2.88;;;19.20;91.40;;;;;;4945885;29;20024;-90
2021/07/05 21:05:01;;;;;;;5.03;2.92;;;19.20;91.30;;;;;;4939526;28;20026;-90
2021/07/05 21:07:29;;;;;;;4.53;2.80;;;19.30;91.50;;;;;;4955074;28;20485;-90
2021/07/05 21:09:55;;;;;;;3.22;2.72;;;19.20;90.90;;;;;;4955189;28;20101;-90
2021/07/05 21:12:21;;;;;;;4.13;2.78;;;19.20;91.20;;;;;;4951002;28;20497;-90
2021/07/05 21:14:46;;;;;;;3.78;3.00;;;19.20;90.60;;;;;;4951726;28;20038;-90
2021/07/05 21:17:12;;;;;;;3.55;2.70;;;19.20;91.00;;;;;;4951811;28;20434;-90
2021/07/05 21:19:37;;;;;;;6.25;3.53;;;19.20;91.00;;;;;;4952086;28;20510;-90
2021/07/05 21:22:04;;;;;;;4.50;3.42;;;19.30;91.10;;;;;;4952083;28;20079;-90
2021/07/05 21:24:34;;;;;;;7.20;3.10;;;19.20;91.00;;;;;;4955099;28;20064;-90
2021/07/05 21:27:00;;;;;;;5.55;3.65;;;19.20;90.80;;;;;;4955210;28;20106;-90
2021/07/05 21:29:25;;;;;;;8.00;4.05;;;19.20;90.80;;;;;;4939076;28;20466;-91